Time;durP1;ratioP1;P1;durP2;ratioP2;P2;SDS_P1;SDS_P2;PMS_P1;PMS_P2;Temp;Humidity;BMP_temperature;BMP_pressure;BME280_temperature;BME280_humidity;BME280_pressure;Samples;Min_cycle;Max_cycle;Signal;HPM_P1;HPM_P2
2023/09/27 00:01:06;;;;;;;6.03;2.70;;;14.50;99.90;;;13.79;100.00;101513.00;4203326;28;20082;-77
2023/09/27 00:03:07;;;;;;;7.32;2.83;;;14.40;99.90;;;13.77;100.00;101525.56;4203060;28;20041;-77
2023/09/27 00:05:10;;;;;;;7.10;2.58;;;14.40;99.90;;;13.73;100.00;101525.06;4203318;28;20056;-77
2023/09/27 00:07:11;;;;;;;10.43;3.05;;;14.40;99.90;;;13.70;100.00;101509.47;4203145;28;20028;-77
2023/09/27 00:09:12;;;;;;;9.65;3.90;;;14.30;99.90;;;13.70;100.00;101498.03;4202979;28;20032;-77
2023/09/27 00:11:13;;;;;;;10.65;3.00;;;14.30;99.90;;;13.69;100.00;101521.06;4203210;28;20036;-77
2023/09/27 00:13:13;;;;;;;10.93;4.05;;;14.30;99.90;;;13.70;100.00;101520.09;4202882;28;20035;-77
2023/09/27 00:15:15;;;;;;;10.10;4.07;;;14.30;99.90;;;13.69;100.00;101501.66;4191932;28;20436;-77
2023/09/27 00:17:15;;;;;;;10.82;3.85;;;14.40;99.90;;;13.71;100.00;101484.59;4185296;28;20107;-77
2023/09/27 00:19:16;;;;;;;13.75;3.72;;;14.30;99.90;;;13.72;100.00;101470.38;4202894;28;20025;-77
2023/09/27 00:21:17;;;;;;;10.27;4.15;;;14.30;99.90;;;13.70;100.00;101469.72;4203096;28;20086;-77
2023/09/27 00:23:18;;;;;;;11.38;3.92;;;14.40;99.90;;;13.73;100.00;101481.81;4192178;28;20029;-77
2023/09/27 00:25:19;;;;;;;9.40;3.83;;;14.40;99.90;;;13.69;100.00;101499.03;4201608;28;20028;-77
2023/09/27 00:27:20;;;;;;;9.20;3.70;;;14.40;99.90;;;13.64;100.00;101514.56;4185939;28;20040;-77
2023/09/27 00:29:20;;;;;;;7.60;2.60;;;14.30;99.90;;;13.61;100.00;101522.84;4186244;28;20036;-77
2023/09/27 00:31:21;;;;;;;6.15;2.95;;;14.30;99.90;;;13.57;100.00;101513.53;4194226;28;20036;-77
2023/09/27 00:33:23;;;;;;;10.25;3.35;;;14.20;99.90;;;13.56;100.00;101502.09;4186378;28;20476;-77
2023/09/27 00:35:24;;;;;;;5.93;2.80;;;14.20;99.90;;;13.62;100.00;101511.25;4200713;28;20108;-77
2023/09/27 00:37:25;;;;;;;9.20;3.75;;;14.30;99.90;;;13.61;100.00;101509.59;4202773;28;20017;-77
2023/09/27 00:39:26;;;;;;;11.85;4.65;;;14.30;99.90;;;13.64;100.00;101515.41;4192377;28;20055;-77
2023/09/27 00:41:27;;;;;;;10.20;3.95;;;14.30;99.90;;;13.67;100.00;101515.09;4186124;28;20029;-77
2023/09/27 00:43:30;;;;;;;6.28;3.80;;;14.30;99.90;;;13.71;100.00;101499.69;4186498;28;20048;-77
2023/09/27 00:45:31;;;;;;;9.18;3.78;;;14.40;99.90;;;13.74;100.00;101502.03;4195772;28;20158;-77
2023/09/27 00:47:33;;;;;;;10.73;3.83;;;14.40;99.90;;;13.73;100.00;101503.03;4186054;28;20064;-77
2023/09/27 00:49:34;;;;;;;13.82;4.68;;;14.40;99.90;;;13.71;100.00;101500.53;4184695;28;20023;-77
2023/09/27 00:51:36;;;;;;;11.15;3.95;;;14.40;99.90;;;13.70;100.00;101498.03;4200501;28;20491;-77
2023/09/27 00:53:39;;;;;;;11.40;3.28;;;14.40;99.90;;;13.69;100.00;101496.38;4190496;28;20024;-77
2023/09/27 00:55:41;;;;;;;8.23;3.50;;;14.30;99.90;;;13.68;100.00;101500.00;4192159;28;20028;-77
2023/09/27 00:57:43;;;;;;;7.93;3.60;;;14.40;99.90;;;13.64;100.00;101490.72;4184426;28;20028;-77
2023/09/27 00:59:45;;;;;;;7.68;3.10;;;14.30;99.90;;;13.61;100.00;101491.03;4200443;28;20036;-77
2023/09/27 01:01:46;;;;;;;7.55;3.05;;;14.30;99.90;;;13.56;100.00;101480.06;4190750;28;20032;-77
2023/09/27 01:03:48;;;;;;;9.32;3.97;;;14.20;99.90;;;13.56;100.00;101485.38;4201110;28;20039;-77
2023/09/27 01:05:49;;;;;;;10.48;3.80;;;14.20;99.90;;;13.55;100.00;101495.16;4188063;28;20404;-77
2023/09/27 01:07:51;;;;;;;8.70;3.35;;;14.20;99.90;;;13.56;100.00;101493.34;4185634;28;20033;-77
2023/09/27 01:09:52;;;;;;;7.28;3.53;;;14.20;99.90;;;13.57;100.00;101495.81;4190651;28;20573;-77
2023/09/27 01:11:53;;;;;;;6.22;3.47;;;14.20;99.90;;;13.56;100.00;101485.38;4185667;28;20029;-77
2023/09/27 01:13:54;;;;;;;9.02;3.25;;;14.30;99.90;;;13.62;100.00;101498.00;4196735;28;20033;-77
2023/09/27 01:15:54;;;;;;;5.22;3.13;;;14.20;99.90;;;13.60;100.00;101471.63;4184710;28;20384;-77
2023/09/27 01:17:57;;;;;;;7.13;2.80;;;14.30;99.90;;;13.62;100.00;101474.16;4190174;28;20107;-77
2023/09/27 01:19:58;;;;;;;5.28;3.10;;;14.30;99.90;;;13.63;100.00;101479.28;4184341;28;20146;-77
2023/09/27 01:21:59;;;;;;;9.27;3.08;;;14.30;99.90;;;13.62;100.00;101476.78;4197853;28;20029;-77
2023/09/27 01:24:00;;;;;;;6.55;3.60;;;14.30;99.90;;;13.70;100.00;101475.00;4202010;28;20017;-77
2023/09/27 01:26:01;;;;;;;9.88;4.53;;;14.30;99.90;;;13.78;100.00;101492.78;4202059;28;20024;-77
2023/09/27 01:28:11;;;;;;;11.85;4.63;;;14.40;99.90;;;13.83;100.00;101495.75;4192023;28;20063;-77
2023/09/27 01:30:12;;;;;;;10.85;4.20;;;14.40;99.90;;;13.87;100.00;101505.06;4196412;28;20028;-77
2023/09/27 01:32:13;;;;;;;11.05;4.90;;;14.50;99.90;;;13.89;100.00;101503.09;4200494;28;20071;-77
2023/09/27 01:34:14;;;;;;;7.47;4.20;;;14.60;99.90;;;13.92;100.00;101500.13;4194738;28;20016;-77
2023/09/27 01:36:15;;;;;;;11.35;4.45;;;14.50;99.90;;;13.92;100.00;101504.63;4191700;28;20090;-77
2023/09/27 01:38:16;;;;;;;10.85;3.70;;;14.60;99.90;;;13.90;100.00;101503.94;4185143;28;20023;-77
2023/09/27 01:40:18;;;;;;;6.55;3.80;;;14.50;99.90;;;13.90;100.00;101509.22;4199653;28;20021;-77
2023/09/27 01:42:18;;;;;;;9.85;4.25;;;14.50;99.90;;;13.86;100.00;101503.41;4183678;28;20505;-77
2023/09/27 01:44:19;;;;;;;7.68;3.53;;;14.50;99.90;;;13.85;100.00;101496.47;4185311;28;20028;-77
2023/09/27 01:46:20;;;;;;;6.72;3.40;;;14.50;99.90;;;13.86;100.00;101488.34;4185218;28;20033;-77
2023/09/27 01:48:21;;;;;;;5.38;3.92;;;14.50;99.90;;;13.86;100.00;101474.22;4184963;28;20484;-77
2023/09/27 01:50:26;;;;;;;5.20;3.28;;;14.50;99.90;;;13.86;100.00;101471.59;4189447;28;20571;-77
2023/09/27 01:52:27;;;;;;;11.88;4.18;;;14.50;99.90;;;13.85;100.00;101475.25;4184071;28;20118;-77
2023/09/27 01:54:28;;;;;;;7.45;3.95;;;14.50;99.90;;;13.89;100.00;101481.06;4197641;28;20440;-77
2023/09/27 01:56:29;;;;;;;6.70;3.75;;;14.50;99.90;;;13.91;100.00;101479.06;4184803;28;20456;-77
2023/09/27 01:58:30;;;;;;;8.85;4.03;;;14.60;99.90;;;13.94;100.00;101481.41;4200229;28;20549;-77
2023/09/27 02:00:31;;;;;;;8.85;3.47;;;14.60;99.90;;;13.95;100.00;101472.47;4192419;28;20028;-77
2023/09/27 02:02:32;;;;;;;7.40;3.22;;;14.60;99.90;;;13.94;100.00;101461.03;4183759;28;20052;-77
2023/09/27 02:04:32;;;;;;;7.53;3.60;;;14.60;99.90;;;13.97;100.00;101454.56;4200333;28;20099;-77
2023/09/27 02:06:33;;;;;;;4.30;2.55;;;14.60;99.90;;;13.96;100.00;101451.06;4185132;28;20029;-77
2023/09/27 02:08:34;;;;;;;6.60;2.90;;;14.60;99.90;;;13.93;100.00;101448.75;4184831;28;20029;-77
2023/09/27 02:10:35;;;;;;;9.15;3.35;;;14.60;99.90;;;13.86;100.00;101445.06;4185198;28;20021;-77
2023/09/27 02:12:37;;;;;;;7.15;3.38;;;14.50;99.90;;;13.82;100.00;101444.56;4197962;28;20028;-77
2023/09/27 02:14:38;;;;;;;10.48;3.40;;;14.50;99.90;;;13.76;100.00;101449.69;4188042;28;20031;-77
2023/09/27 02:16:41;;;;;;;6.10;4.15;;;14.40;99.90;;;13.71;100.00;101442.19;4192461;28;20025;-77
2023/09/27 02:18:42;;;;;;;6.28;3.00;;;14.40;99.90;;;13.69;100.00;101438.88;4185124;28;20051;-77
2023/09/27 02:20:43;;;;;;;4.20;2.88;;;14.40;99.90;;;13.69;100.00;101430.09;4184777;28;20033;-77
2023/09/27 02:22:47;;;;;;;5.88;3.53;;;14.30;99.90;;;13.65;100.00;101416.31;4184981;28;20021;-77
2023/09/27 02:24:49;;;;;;;6.85;2.92;;;14.30;99.90;;;13.59;100.00;101400.22;4191513;28;20075;-77
2023/09/27 02:26:49;;;;;;;6.80;2.58;;;14.30;99.90;;;13.58;100.00;101406.50;4185653;28;20037;-77
2023/09/27 02:28:50;;;;;;;5.10;2.08;;;14.30;99.90;;;13.51;100.00;101402.81;4202058;28;20476;-77
2023/09/27 02:30:51;;;;;;;2.55;1.67;;;14.20;99.90;;;13.47;100.00;101404.97;4199211;28;20447;-77
2023/09/27 02:32:52;;;;;;;3.38;2.00;;;14.10;99.90;;;13.42;100.00;101417.88;4170369;28;20030;-77
2023/09/27 02:34:53;;;;;;;3.95;2.00;;;14.10;99.90;;;13.39;100.00;101404.94;4198968;28;20021;-77
2023/09/27 02:36:54;;;;;;;7.35;2.40;;;14.10;99.90;;;13.37;100.00;101401.63;4190397;28;20079;-77
2023/09/27 02:38:55;;;;;;;6.20;2.35;;;14.10;99.90;;;13.37;100.00;101417.50;4190422;28;20420;-77
2023/09/27 02:40:56;;;;;;;14.15;2.47;;;14.10;99.90;;;13.37;100.00;101411.38;4188044;28;20032;-77
2023/09/27 02:42:56;;;;;;;7.40;2.30;;;14.00;99.90;;;13.37;100.00;101414.03;4186659;28;20032;-77
2023/09/27 02:44:57;;;;;;;3.17;1.67;;;14.10;99.90;;;13.40;100.00;101419.00;4202422;28;20024;-77
2023/09/27 02:46:58;;;;;;;4.70;2.03;;;14.00;99.90;;;13.39;100.00;101410.22;4199191;28;20037;-77
2023/09/27 02:48:59;;;;;;;4.82;2.10;;;14.00;99.90;;;13.41;100.00;101400.28;4187991;28;20103;-77
2023/09/27 02:51:00;;;;;;;11.27;2.50;;;14.10;99.90;;;13.41;100.00;101380.94;4187826;28;20499;-77
2023/09/27 02:53:01;;;;;;;9.90;2.58;;;14.10;99.90;;;13.39;100.00;101362.53;4200427;28;20554;-77
2023/09/27 02:55:02;;;;;;;5.75;3.13;;;14.10;99.90;;;13.40;100.00;101366.00;4199726;28;20025;-77
2023/09/27 02:57:03;;;;;;;5.30;2.90;;;14.10;99.90;;;13.38;100.00;101355.56;4194231;28;20020;-77
2023/09/27 02:59:04;;;;;;;4.95;3.25;;;14.10;99.90;;;13.39;100.00;101340.50;4193279;28;20425;-77
2023/09/27 03:01:05;;;;;;;4.25;2.40;;;14.10;99.90;;;13.41;100.00;101333.22;4187679;28;20025;-77
2023/09/27 03:03:07;;;;;;;3.00;2.00;;;14.10;99.90;;;13.39;100.00;101316.63;4187637;28;20067;-77
2023/09/27 03:05:09;;;;;;;2.95;2.20;;;14.10;99.90;;;13.37;100.00;101308.03;4187683;28;20033;-77
2023/09/27 03:07:11;;;;;;;5.82;2.28;;;14.00;99.90;;;13.37;100.00;101310.69;4186216;28;20029;-77
2023/09/27 03:09:12;;;;;;;3.50;2.00;;;14.00;99.90;;;13.37;100.00;101300.09;4202709;28;20025;-77
2023/09/27 03:11:14;;;;;;;38.08;5.22;;;14.00;99.90;;;13.41;100.00;101304.09;4187566;28;20075;-77
2023/09/27 03:13:15;;;;;;;6.88;3.75;;;14.00;99.90;;;13.48;100.00;101307.72;4192592;28;20017;-77
2023/09/27 03:15:16;;;;;;;6.38;3.75;;;14.10;99.90;;;13.50;100.00;101317.19;4187673;28;20023;-77
2023/09/27 03:17:17;;;;;;;11.95;4.65;;;14.10;99.90;;;13.56;100.00;101329.78;4199349;28;20032;-77
2023/09/27 03:19:22;;;;;;;8.82;4.38;;;14.20;99.90;;;13.62;100.00;101331.00;4187426;28;20029;-77
2023/09/27 03:21:24;;;;;;;15.48;5.43;;;14.20;99.90;;;13.63;100.00;101320.22;4192797;28;20027;-77
2023/09/27 03:23:28;;;;;;;11.55;4.97;;;14.30;99.90;;;13.69;100.00;101321.38;4187369;28;20519;-77
2023/09/27 03:25:29;;;;;;;11.32;4.75;;;14.30;99.90;;;13.72;100.00;101321.06;4199898;28;20119;-77
2023/09/27 03:27:30;;;;;;;12.70;5.28;;;14.30;99.90;;;13.72;100.00;101329.84;4187132;28;20037;-77
2023/09/27 03:29:32;;;;;;;10.93;4.90;;;14.30;99.90;;;13.76;100.00;101339.16;4187251;28;20031;-77
2023/09/27 03:31:32;;;;;;;7.03;4.55;;;14.40;99.90;;;13.77;100.00;101340.78;4187116;28;20112;-77
2023/09/27 03:33:33;;;;;;;7.80;4.63;;;14.40;99.90;;;13.81;100.00;101326.22;4187154;28;20067;-77
2023/09/27 03:35:34;;;;;;;13.85;4.70;;;14.50;99.90;;;13.85;100.00;101316.13;4191103;28;20501;-77
2023/09/27 03:37:35;;;;;;;11.27;4.68;;;14.50;99.90;;;13.88;100.00;101309.66;4186939;28;20044;-77
2023/09/27 03:39:36;;;;;;;8.45;4.63;;;14.50;99.90;;;13.92;100.00;101316.31;4192312;28;20048;-77
2023/09/27 03:41:39;;;;;;;9.02;4.50;;;14.50;99.90;;;13.93;100.00;101312.63;4190135;28;20032;-77
2023/09/27 03:43:39;;;;;;;8.13;4.50;;;14.60;99.90;;;13.96;100.00;101312.31;4190526;28;20032;-77
2023/09/27 03:45:41;;;;;;;7.38;4.05;;;14.60;99.90;;;13.97;100.00;101304.22;4203625;28;20025;-77
2023/09/27 03:47:44;;;;;;;6.00;4.30;;;14.60;99.90;;;13.98;100.00;101292.59;4203540;28;20029;-77
2023/09/27 03:49:45;;;;;;;8.55;4.60;;;14.60;99.90;;;14.03;100.00;101297.41;4188266;28;20035;-77
2023/09/27 03:51:46;;;;;;;12.20;5.18;;;14.70;99.90;;;14.01;100.00;101297.56;4186981;28;20391;-77
2023/09/27 03:53:47;;;;;;;11.65;6.07;;;14.70;99.90;;;14.02;100.00;101311.66;4192879;28;20028;-77
2023/09/27 03:55:48;;;;;;;13.30;6.32;;;14.70;99.90;;;14.04;100.00;101313.16;4187062;28;20044;-77
2023/09/27 03:57:48;;;;;;;13.00;6.22;;;14.70;99.90;;;14.05;100.00;101317.47;4186482;28;20028;-77
2023/09/27 03:59:49;;;;;;;14.95;6.95;;;14.70;99.90;;;14.05;100.00;101322.78;4186826;28;20032;-77
2023/09/27 04:01:51;;;;;;;11.05;6.00;;;14.70;99.90;;;14.05;100.00;101306.03;4186588;28;20439;-77
2023/09/27 04:03:52;;;;;;;13.48;6.25;;;14.80;99.90;;;14.06;100.00;101303.22;4186701;28;20029;-77
2023/09/27 04:05:53;;;;;;;12.13;6.65;;;14.70;99.90;;;14.05;100.00;101322.78;4186651;28;20048;-77
2023/09/27 04:07:54;;;;;;;14.90;6.78;;;14.70;99.90;;;14.04;100.00;101337.03;4186583;28;20025;-77
2023/09/27 04:09:54;;;;;;;10.30;5.88;;;14.70;99.90;;;14.06;100.00;101327.09;4186633;28;20025;-77
2023/09/27 04:11:55;;;;;;;15.13;5.82;;;14.70;99.90;;;14.08;100.00;101308.34;4186552;28;20025;-77
2023/09/27 04:13:56;;;;;;;10.07;6.05;;;14.70;99.90;;;14.08;100.00;101301.22;4194173;28;20021;-77
2023/09/27 04:15:57;;;;;;;15.20;5.93;;;14.80;99.90;;;14.09;100.00;101292.28;4187595;28;20035;-77
2023/09/27 04:17:58;;;;;;;12.60;6.03;;;14.80;99.90;;;14.08;100.00;101301.22;4186568;28;20496;-77
2023/09/27 04:19:58;;;;;;;11.93;6.88;;;14.80;99.90;;;14.10;100.00;101309.00;4186453;28;20029;-77
2023/09/27 04:21:59;;;;;;;11.70;5.25;;;14.80;99.90;;;14.11;100.00;101302.72;4188982;28;20025;-77
2023/09/27 04:24:03;;;;;;;18.75;6.57;;;14.80;99.90;;;14.08;100.00;101295.09;4194110;28;20028;-77
2023/09/27 04:26:07;;;;;;;11.57;5.87;;;14.80;99.90;;;14.09;100.00;101286.16;4194649;28;20020;-77
2023/09/27 04:28:09;;;;;;;;;;;14.70;99.90;;;14.04;100.00;101297.22;4193122;28;20264;-77
2023/09/27 04:30:11;;;;;;;8.60;5.50;;;14.80;99.90;;;14.04;100.00;101293.75;4192935;28;19908;-77
2023/09/27 04:32:12;;;;;;;11.38;4.97;;;14.70;99.90;;;14.07;100.00;101299.56;4194064;28;20048;-77
2023/09/27 04:34:13;;;;;;;11.70;4.53;;;14.80;99.90;;;14.06;100.00;101294.44;4203034;28;20025;-77
2023/09/27 04:36:17;;;;;;;11.20;4.13;;;14.80;99.90;;;14.06;100.00;101295.25;4192545;28;20096;-77
2023/09/27 04:38:18;;;;;;;;;;;14.80;99.90;;;14.00;100.00;101280.00;4193963;28;20078;-77
2023/09/27 04:40:19;;;;;;;6.65;3.92;;;14.70;99.90;;;14.03;100.00;101276.19;4186563;28;19909;-77
2023/09/27 04:42:20;;;;;;;8.23;4.40;;;14.70;99.90;;;14.02;100.00;101270.06;4186065;28;20100;-77
2023/09/27 04:44:21;;;;;;;9.63;4.05;;;14.70;99.90;;;13.97;100.00;101272.38;4194363;28;20032;-77
2023/09/27 04:46:21;;;;;;;5.57;3.80;;;14.70;99.90;;;13.95;100.00;101277.00;4201786;28;20035;-77
2023/09/27 04:48:22;;;;;;;10.80;4.95;;;14.70;99.90;;;13.93;100.00;101271.03;4186232;28;20040;-77
2023/09/27 04:50:23;;;;;;;11.27;5.40;;;14.60;99.90;;;13.90;100.00;101273.19;4185980;28;20496;-77
2023/09/27 04:52:24;;;;;;;12.45;5.65;;;14.60;99.90;;;13.89;100.00;101267.03;4186199;28;20025;-77
2023/09/27 04:54:25;;;;;;;10.75;5.15;;;14.60;99.90;;;13.87;100.00;101263.75;4185980;28;20028;-77
2023/09/27 04:56:27;;;;;;;13.43;6.47;;;14.60;99.90;;;13.90;100.00;101268.72;4200706;28;20435;-77
2023/09/27 04:58:28;;;;;;;8.77;5.45;;;14.60;99.90;;;13.90;100.00;101260.75;4189131;28;20107;-78
2023/09/27 05:00:29;;;;;;;9.48;4.78;;;14.60;99.90;;;13.93;100.00;101271.03;4193123;28;20430;-77
2023/09/27 05:02:30;;;;;;;20.13;6.20;;;14.60;99.90;;;13.94;100.00;101251.50;4185876;28;20108;-77
2023/09/27 05:04:31;;;;;;;7.03;4.82;;;14.60;99.90;;;13.93;100.00;101257.78;4185725;28;20496;-77
2023/09/27 05:06:32;;;;;;;10.55;5.45;;;14.60;99.90;;;13.91;100.00;101261.59;4190187;28;20029;-77
2023/09/27 05:08:34;;;;;;;8.52;4.15;;;14.60;99.90;;;13.90;100.00;101263.41;4190707;28;20407;-77
2023/09/27 05:10:36;;;;;;;10.32;4.60;;;14.60;99.90;;;13.89;100.00;101266.25;4190044;28;20055;-77
2023/09/27 05:12:38;;;;;;;11.02;4.82;;;14.60;99.90;;;13.85;100.00;101257.78;4185284;28;20017;-77
2023/09/27 05:14:39;;;;;;;8.10;4.82;;;14.50;99.90;;;13.86;100.00;101259.41;4184330;28;20021;-77
2023/09/27 05:16:40;;;;;;;9.60;4.65;;;14.50;99.90;;;13.83;100.00;101265.06;4193571;28;20518;-77
2023/09/27 05:18:41;;;;;;;13.02;4.60;;;14.50;99.90;;;13.79;100.00;101272.53;4196510;28;20083;-77
2023/09/27 05:20:45;;;;;;;9.93;4.25;;;14.50;99.90;;;13.77;100.00;101271.84;4185471;28;20086;-77
2023/09/27 05:22:46;;;;;;;9.25;4.32;;;14.50;99.90;;;13.77;100.00;101271.84;4184521;28;20098;-77
2023/09/27 05:24:47;;;;;;;7.57;3.83;;;14.50;99.90;;;13.77;100.00;101273.66;4184194;28;20037;-77
2023/09/27 05:26:48;;;;;;;15.93;5.00;;;14.40;99.90;;;13.79;100.00;101269.03;4185479;28;20029;-77
2023/09/27 05:28:49;;;;;;;10.13;3.90;;;14.40;99.90;;;13.76;100.00;101264.06;4189532;28;20399;-77
2023/09/27 05:30:51;;;;;;;5.88;3.80;;;14.40;99.90;;;13.76;100.00;101261.41;4185599;28;20036;-77
2023/09/27 05:32:52;;;;;;;6.32;3.42;;;14.40;99.90;;;13.76;100.00;101250.81;4185411;28;20025;-77
2023/09/27 05:34:53;;;;;;;7.00;3.72;;;14.40;99.90;;;13.76;100.00;101242.84;4186907;28;20028;-77
2023/09/27 05:36:53;;;;;;;5.35;3.33;;;14.40;99.90;;;13.74;100.00;101247.47;4185874;28;20051;-77
2023/09/27 05:38:54;;;;;;;6.05;4.20;;;14.40;99.90;;;13.71;100.00;101242.50;4191610;28;20048;-77
2023/09/27 05:40:55;;;;;;;7.15;3.85;;;14.40;99.90;;;13.71;100.00;101240.69;4184047;28;20036;-77
2023/09/27 05:42:56;;;;;;;5.15;3.40;;;14.40;99.90;;;13.70;100.00;101246.16;4185005;28;20492;-77
2023/09/27 05:44:57;;;;;;;9.45;3.80;;;14.40;99.90;;;13.71;100.00;101239.84;4198239;28;20535;-77
2023/09/27 05:46:57;;;;;;;11.23;3.67;;;14.40;99.90;;;13.69;100.00;101229.41;4201875;28;20024;-77
2023/09/27 05:49:02;;;;;;;6.35;3.67;;;14.40;99.90;;;13.71;100.00;101222.13;4193483;28;20033;-77
2023/09/27 05:51:03;;;;;;;5.38;3.50;;;14.40;99.90;;;13.70;100.00;101217.84;4185239;28;20452;-77
2023/09/27 05:53:05;;;;;;;18.58;5.20;;;14.40;99.90;;;13.73;100.00;101221.97;4197906;28;20055;-77
2023/09/27 05:55:07;;;;;;;9.70;4.43;;;14.40;99.90;;;13.72;100.00;101223.78;4200440;28;20024;-77
2023/09/27 05:57:08;;;;;;;8.68;4.43;;;14.40;99.90;;;13.75;100.00;101231.41;4185003;28;20029;-77
2023/09/27 05:59:08;;;;;;;10.02;3.92;;;14.40;99.90;;;13.73;100.00;101217.50;4194406;28;20017;-77
2023/09/27 06:01:10;;;;;;;8.15;4.72;;;14.40;99.90;;;13.75;100.00;101222.63;4188872;28;20028;-77
2023/09/27 06:03:11;;;;;;;6.57;4.18;;;14.40;99.90;;;13.76;100.00;101232.25;4190621;28;20485;-77
2023/09/27 06:05:12;;;;;;;8.30;4.30;;;14.40;99.90;;;13.77;100.00;101233.88;4190604;28;20040;-77
2023/09/27 06:07:15;;;;;;;7.68;4.70;;;14.40;99.90;;;13.76;100.00;101226.94;4190574;28;20024;-78
2023/09/27 06:09:16;;;;;;;7.35;4.80;;;14.40;99.90;;;13.79;100.00;101242.53;4203619;28;20064;-78
2023/09/27 06:11:17;;;;;;;9.50;4.60;;;14.50;99.90;;;13.79;100.00;101245.19;4201971;28;20394;-77
2023/09/27 06:13:17;;;;;;;8.65;4.82;;;14.50;99.90;;;13.78;100.00;101232.91;4188805;28;20032;-77
2023/09/27 06:15:19;;;;;;;8.88;5.38;;;14.50;99.90;;;13.81;100.00;101244.03;4199986;28;20021;-77
2023/09/27 06:17:19;;;;;;;7.30;4.20;;;14.40;99.90;;;13.86;100.00;101243.50;4202975;28;20067;-77
2023/09/27 06:19:21;;;;;;;6.72;4.40;;;14.50;99.90;;;13.89;100.00;101240.53;4196067;28;20039;-77
2023/09/27 06:21:22;;;;;;;8.07;5.03;;;14.50;99.90;;;13.93;100.00;101231.25;4190557;28;20024;-77
2023/09/27 06:23:22;;;;;;;14.00;5.50;;;14.60;99.90;;;13.97;100.00;101221.97;4190622;28;20078;-77
2023/09/27 06:25:28;;;;;;;11.15;6.00;;;14.60;99.90;;;14.01;100.00;101222.47;4190415;28;20040;-77
2023/09/27 06:27:29;;;;;;;10.15;5.72;;;14.60;99.90;;;14.03;100.00;101208.06;4192319;28;20066;-77
2023/09/27 06:29:30;;;;;;;12.65;6.07;;;14.70;99.90;;;14.03;100.00;101202.75;4200131;28;20029;-78
2023/09/27 06:31:31;;;;;;;9.10;5.93;;;14.70;99.90;;;14.09;100.00;101201.25;4195579;28;20075;-77
2023/09/27 06:33:38;;;;;;;9.55;5.85;;;14.70;99.90;;;14.13;100.00;101202.56;4189119;28;20025;-77
2023/09/27 06:35:40;;;;;;;10.30;6.32;;;14.80;99.90;;;14.18;100.00;101206.38;4192788;28;20068;-77
2023/09/27 06:37:43;;;;;;;20.25;7.47;;;14.90;99.90;;;14.26;100.00;101214.31;4189361;28;20024;-77
2023/09/27 06:39:44;;;;;;;12.85;6.85;;;14.90;99.90;;;14.30;100.00;101220.97;4202765;28;20106;-77
2023/09/27 06:41:45;;;;;;;9.07;5.72;;;15.00;99.90;;;14.36;100.00;101215.00;4205450;28;20036;-77
2023/09/27 06:43:47;;;;;;;15.88;7.28;;;15.00;99.90;;;14.43;100.00;101216.97;4205596;28;20523;-78
2023/09/27 06:45:49;;;;;;;11.85;6.00;;;15.10;99.90;;;14.46;100.00;101216.63;4206958;28;20031;-79
2023/09/27 06:47:49;;;;;;;9.45;6.28;;;15.10;99.90;;;14.51;100.00;101219.63;4207217;28;20032;-77
2023/09/27 06:49:52;;;;;;;10.48;6.70;;;15.10;99.90;;;14.52;100.00;101227.41;4205536;28;20048;-77
2023/09/27 06:51:53;;;;;;;10.40;6.50;;;15.20;99.90;;;14.60;100.00;101221.25;4190332;28;20044;-77
2023/09/27 06:53:54;;;;;;;8.15;5.30;;;15.20;99.90;;;14.64;100.00;101230.50;4196884;28;20027;-78
2023/09/27 06:55:54;;;;;;;12.57;6.30;;;15.20;99.90;;;14.64;100.00;101214.59;4190259;28;20025;-77
2023/09/27 06:57:55;;;;;;;9.68;5.80;;;15.30;99.90;;;14.61;100.00;101204.31;4189877;28;20378;-77
2023/09/27 06:59:56;;;;;;;9.35;5.72;;;15.30;99.90;;;14.66;100.00;101213.44;4200592;28;20036;-77
2023/09/27 07:01:57;;;;;;;7.35;4.85;;;15.20;99.90;;;14.69;100.00;101204.31;4190258;28;20025;-77
2023/09/27 07:03:58;;;;;;;12.13;6.10;;;15.30;99.90;;;14.65;100.00;101195.00;4190191;28;20044;-77
2023/09/27 07:05:59;;;;;;;11.23;6.15;;;15.30;99.90;;;14.63;100.00;101189.88;4190104;28;20025;-77
2023/09/27 07:08:00;;;;;;;7.43;5.18;;;15.30;99.90;;;14.64;100.00;101196.00;4190094;28;20028;-77
2023/09/27 07:10:01;;;;;;;9.18;5.65;;;15.20;99.90;;;14.56;100.00;101182.75;4196993;28;20025;-77
2023/09/27 07:12:02;;;;;;;8.35;5.50;;;15.20;99.90;;;14.58;100.00;101191.38;4199032;28;20016;-77
2023/09/27 07:14:03;;;;;;;10.20;6.03;;;15.20;99.90;;;14.51;100.00;101190.41;4185104;28;20083;-77
2023/09/27 07:16:20;;;;;;;11.13;5.47;;;15.20;99.90;;;14.50;100.00;101186.94;4189842;28;20020;-77
2023/09/27 07:18:21;;;;;;;9.00;5.45;;;15.20;99.90;;;14.51;100.00;101193.06;4195107;28;20115;-77
2023/09/27 07:20:27;;;;;;;8.70;5.93;;;15.20;99.90;;;14.51;100.00;101195.72;4190634;28;20369;-77
2023/09/27 07:22:31;;;;;;;8.20;5.05;;;15.20;99.90;;;14.49;100.00;101187.09;4187352;28;20092;-78
2023/09/27 07:24:33;;;;;;;8.88;5.70;;;15.20;99.90;;;14.50;100.00;101188.75;4192416;28;20097;-78
2023/09/27 07:26:33;;;;;;;9.35;5.80;;;15.20;99.90;;;14.51;100.00;101185.94;4187411;28;20033;-78
2023/09/27 07:28:35;;;;;;;10.02;5.47;;;15.20;99.90;;;14.58;100.00;101200.16;4199115;28;20017;-76
2023/09/27 07:30:37;;;;;;;8.55;5.65;;;15.20;99.90;;;14.68;100.00;101200.81;4186003;28;20522;-75
2023/09/27 07:32:41;;;;;;;7.43;4.72;;;15.30;99.90;;;14.76;100.00;101198.13;4186348;28;20021;-75
2023/09/27 07:34:42;;;;;;;10.10;4.63;;;15.30;99.90;;;14.84;100.00;101205.25;4186475;28;20025;-75
2023/09/27 07:36:46;;;;;;;8.75;4.75;;;15.40;99.90;;;14.89;100.00;101200.22;4189993;28;20502;-76
2023/09/27 07:38:47;;;;;;;;;;;15.40;99.90;;;14.85;100.00;101186.47;4188012;28;20093;-76
2023/09/27 07:40:48;;;;;;;5.93;4.10;;;15.40;99.90;;;14.88;100.00;101187.94;4194624;28;19916;-80
2023/09/27 07:42:51;;;;;;;6.47;4.53;;;15.50;99.90;;;14.87;100.00;101179.13;4190987;28;20036;-80
2023/09/27 07:44:51;;;;;;;5.82;4.00;;;15.50;99.90;;;14.90;100.00;101167.38;4200014;28;20024;-74
2023/09/27 07:46:52;;;;;;;8.15;4.57;;;15.50;99.90;;;14.90;100.00;101165.50;4189303;28;20056;-77
2023/09/27 07:48:53;;;;;;;6.85;4.00;;;15.50;99.90;;;14.92;100.00;101171.50;4202020;28;20024;-79
2023/09/27 07:50:54;;;;;;;6.65;4.38;;;15.50;99.90;;;14.94;100.00;101172.13;4185543;28;20040;-78
2023/09/27 07:52:55;;;;;;;7.93;5.13;;;15.50;99.90;;;14.97;100.00;101160.34;4194978;28;20021;-78
2023/09/27 07:54:58;;;;;;;6.32;4.10;;;15.60;99.90;;;15.05;100.00;101155.00;4203328;28;20476;-78
2023/09/27 07:57:00;;;;;;;5.22;3.50;;;15.60;99.90;;;15.11;100.00;101151.66;4203343;28;20480;-78
2023/09/27 07:59:00;;;;;;;5.97;3.70;;;15.70;99.90;;;15.20;100.00;101149.75;4203346;28;20025;-78
2023/09/27 08:01:01;;;;;;;4.72;3.05;;;15.80;99.90;;;15.30;100.00;101140.53;4189426;28;20033;-78
2023/09/27 08:03:03;;;;;;;7.80;3.78;;;15.90;99.90;;;15.44;100.00;101139.75;4169029;28;20505;-78
2023/09/27 08:05:09;;;;;;;5.70;4.03;;;16.00;99.90;;;15.67;100.00;101130.97;4186931;28;20028;-78
2023/09/27 08:07:11;;;;;;;6.63;3.85;;;16.20;99.90;;;15.92;100.00;101122.59;4185588;28;20063;-78
2023/09/27 08:09:14;;;;;;;5.10;3.60;;;16.40;99.90;;;16.15;100.00;101130.53;4198392;28;20103;-77
2023/09/27 08:11:15;;;;;;;6.85;3.83;;;16.60;99.90;;;16.38;100.00;101131.25;4190106;28;20025;-77
2023/09/27 08:13:18;;;;;;;7.20;3.60;;;16.80;99.90;;;16.54;100.00;101130.28;4202914;28;20411;-77
2023/09/27 08:15:19;;;;;;;6.22;4.18;;;17.00;99.90;;;16.70;100.00;101123.88;4191346;28;20029;-77
2023/09/27 08:17:20;;;;;;;7.55;3.58;;;17.10;99.90;;;16.80;100.00;101119.09;4185257;28;20091;-77
2023/09/27 08:19:21;;;;;;;6.10;4.25;;;17.30;99.90;;;16.91;100.00;101123.94;4190466;28;20431;-77